Time;durP1;ratioP1;P1;durP2;ratioP2;P2;SDS_P1;SDS_P2;PMS_P1;PMS_P2;Temp;Humidity;BMP_temperature;BMP_pressure;BME280_temperature;BME280_humidity;BME280_pressure;Samples;Min_cycle;Max_cycle;Signal;HPM_P1;HPM_P2
2021/09/28 00:02:02;;;;;;;4.57;2.10;;;;;;;14.17;100.00;101056.28;5059745;28;20055;-52
2021/09/28 00:04:29;;;;;;;5.90;2.75;;;;;;;14.08;100.00;101067.44;5049180;28;20458;-53
2021/09/28 00:07:14;;;;;;;4.90;1.90;;;;;;;14.04;100.00;101071.19;5061187;28;20044;-53
2021/09/28 00:09:41;;;;;;;8.95;2.25;;;;;;;14.03;100.00;101072.13;5062083;28;20048;-52
2021/09/28 00:12:08;;;;;;;6.00;2.05;;;;;;;14.18;100.00;101082.00;5058303;28;20049;-51
2021/09/28 00:14:36;;;;;;;4.20;1.77;;;;;;;14.13;100.00;101053.88;5056903;28;20524;-54
2021/09/28 00:17:02;;;;;;;4.68;2.10;;;;;;;14.23;100.00;101065.78;5060287;28;20064;-51
2021/09/28 00:19:29;;;;;;;5.68;2.10;;;;;;;14.24;100.00;101068.38;5058125;28;20842;-53
2021/09/28 00:21:55;;;;;;;7.63;2.10;;;;;;;14.22;100.00;101069.38;5059820;28;20048;-52
2021/09/28 00:24:22;;;;;;;7.35;2.47;;;;;;;14.23;100.00;101071.09;5062026;28;20056;-53
2021/09/28 00:26:48;;;;;;;5.53;2.30;;;;;;;14.23;100.00;101076.44;5060492;28;20083;-53
2021/09/28 00:29:15;;;;;;;7.22;2.80;;;;;;;14.23;100.00;101082.63;5050498;28;20299;-51
2021/09/28 00:31:41;;;;;;;7.65;2.55;;;;;;;14.24;100.00;101079.03;5064367;28;20044;-52
2021/09/28 00:34:08;;;;;;;5.88;2.40;;;;;;;14.25;100.00;101070.09;5059898;28;20048;-51
2021/09/28 00:36:34;;;;;;;6.25;2.28;;;;;;;14.24;100.00;101073.69;5063588;28;20060;-52
2021/09/28 00:39:00;;;;;;;7.63;2.00;;;;;;;14.19;100.00;101074.88;5056694;28;20047;-51
2021/09/28 00:41:27;;;;;;;8.63;2.47;;;;;;;14.15;100.00;101083.97;5053714;28;20048;-53
2021/09/28 00:43:55;;;;;;;6.05;1.90;;;;;;;14.18;100.00;101078.47;5062972;28;20049;-52
2021/09/28 00:46:23;;;;;;;4.30;1.80;;;;;;;14.18;100.00;101078.47;5065355;28;20044;-53
2021/09/28 00:48:51;;;;;;;6.13;1.83;;;;;;;14.20;100.00;101081.91;5054548;28;20076;-51
2021/09/28 00:51:18;;;;;;;8.65;1.75;;;;;;;14.13;100.00;101081.38;5056629;28;20048;-54
2021/09/28 00:53:50;;;;;;;8.30;1.90;;;;;;;14.17;100.00;101096.25;5060372;28;20044;-52
2021/09/28 00:56:19;;;;;;;5.07;1.77;;;;;;;14.01;100.00;101081.97;5060413;28;20056;-56
2021/09/28 00:58:46;;;;;;;9.93;2.10;;;;;;;14.09;100.00;101087.78;5058996;28;20044;-51
2021/09/28 01:01:14;;;;;;;5.75;1.88;;;;;;;14.05;100.00;101088.88;5056404;28;20044;-56
2021/09/28 01:03:41;;;;;;;9.70;1.77;;;;;;;14.02;100.00;101092.56;5061490;28;20052;-52
2021/09/28 01:06:08;;;;;;;5.68;1.75;;;;;;;13.98;100.00;101096.34;5062662;28;20395;-51
2021/09/28 01:08:35;;;;;;;6.97;1.95;;;;;;;13.95;100.00;101088.50;5061422;28;20071;-52
2021/09/28 01:11:03;;;;;;;6.30;1.85;;;;;;;13.91;100.00;101084.25;5054608;28;20049;-52
2021/09/28 01:13:29;;;;;;;8.40;2.08;;;;;;;13.90;100.00;101093.19;5053625;28;20057;-53
2021/09/28 01:15:59;;;;;;;4.65;1.75;;;;;;;13.89;100.00;101085.25;5060245;28;20262;-52
2021/09/28 01:18:27;;;;;;;4.88;2.30;;;;;;;13.91;100.00;101092.25;5057375;28;20053;-51
2021/09/28 01:20:54;;;;;;;4.20;1.65;;;;;;;13.91;100.00;101091.38;5061447;28;20379;-52
2021/09/28 01:23:21;;;;;;;7.13;1.45;;;;;;;13.84;100.00;101098.81;5053179;28;20041;-52
2021/09/28 01:25:47;;;;;;;6.35;1.73;;;;;;;13.80;100.00;101099.03;5061914;28;20091;-51
2021/09/28 01:28:14;;;;;;;4.70;2.03;;;;;;;13.81;100.00;101096.31;5079063;28;20044;-51
2021/09/28 01:30:40;;;;;;;9.07;2.40;;;;;;;13.80;99.06;101093.72;5079306;28;20056;-52
2021/09/28 01:33:07;;;;;;;6.57;1.70;;;;;;;13.70;99.76;101104.78;5067758;28;20403;-56
2021/09/28 01:35:37;;;;;;;4.60;1.98;;;;;;;13.68;99.91;101101.38;5054585;28;20048;-52
2021/09/28 01:38:04;;;;;;;6.07;1.60;;;;;;;13.65;100.00;101103.31;5054416;28;20044;-52
2021/09/28 01:40:31;;;;;;;5.35;1.67;;;;;;;13.63;100.00;101097.19;5055841;28;20106;-52
2021/09/28 01:43:05;;;;;;;4.70;1.75;;;;;;;13.61;99.72;101099.94;5064356;28;20236;-52
2021/09/28 01:45:32;;;;;;;7.15;2.08;;;;;;;13.60;99.02;101113.31;5063188;28;20053;-53
2021/09/28 01:47:59;;;;;;;4.10;1.92;;;;;;;13.56;99.16;101109.91;5061430;28;20071;-51
2021/09/28 01:50:25;;;;;;;3.42;1.77;;;;;;;13.54;99.61;101109.13;5061994;28;20498;-53
2021/09/28 01:52:52;;;;;;;8.38;2.30;;;;;;;13.53;100.00;101111.91;5063345;28;20078;-53
2021/09/28 01:55:18;;;;;;;4.32;1.65;;;;;;;13.50;100.00;101107.56;5063470;28;20064;-51
2021/09/28 01:57:45;;;;;;;6.90;1.70;;;;;;;13.40;100.00;101092.09;5054969;28;20040;-52
2021/09/28 02:00:12;;;;;;;7.18;1.88;;;;;;;13.47;100.00;101105.06;5061245;28;20044;-52
2021/09/28 02:02:39;;;;;;;6.53;2.47;;;;;;;13.41;100.00;101109.78;5061367;28;20523;-51
2021/09/28 02:05:06;;;;;;;3.13;1.70;;;;;;;13.28;100.00;101088.22;5062789;28;20505;-53
2021/09/28 02:07:32;;;;;;;5.28;2.03;;;;;;;13.29;100.00;101092.63;5062339;28;20075;-54
2021/09/28 02:09:59;;;;;;;5.68;1.83;;;;;;;13.39;100.00;101115.19;5061472;28;20047;-53
2021/09/28 02:12:25;;;;;;;5.82;1.65;;;;;;;13.39;99.92;101122.28;5059158;28;20060;-53
2021/09/28 02:14:52;;;;;;;5.20;1.55;;;;;;;13.38;99.34;101126.75;5059984;28;20044;-52
2021/09/28 02:17:18;;;;;;;4.65;1.50;;;;;;;13.34;99.49;101122.53;5061169;28;20060;-52
2021/09/28 02:19:46;;;;;;;6.50;1.85;;;;;;;13.34;100.00;101123.41;5060471;28;20040;-52
2021/09/28 02:22:12;;;;;;;4.95;1.40;;;;;;;13.33;100.00;101136.75;5056684;28;20048;-52
2021/09/28 02:24:38;;;;;;;2.63;1.33;;;;;;;13.29;100.00;101132.53;5057767;28;20048;-53
2021/09/28 02:27:05;;;;;;;4.45;1.27;;;;;;;13.26;100.00;101130.84;5060023;28;20565;-54
2021/09/28 02:29:32;;;;;;;7.13;1.10;;;;;;;13.23;99.40;101124.81;5063854;28;20414;-53
2021/09/28 02:31:58;;;;;;;7.65;1.52;;;;;;;13.09;98.89;101105.94;5055433;28;20057;-55
2021/09/28 02:34:25;;;;;;;7.53;1.67;;;;;;;13.17;98.95;101136.63;5058233;28;20063;-52
2021/09/28 02:36:51;;;;;;;1.92;0.95;;;;;;;13.16;99.08;101139.34;5064127;28;20406;-53
2021/09/28 02:39:18;;;;;;;5.00;1.05;;;;;;;13.15;98.61;101134.94;5065371;28;20481;-53
2021/09/28 02:41:45;;;;;;;4.50;1.25;;;;;;;13.14;98.22;101135.84;5059635;28;20040;-51
2021/09/28 02:44:13;;;;;;;4.78;1.13;;;;;;;13.01;98.16;101116.94;5061199;28;20045;-53
2021/09/28 02:46:40;;;;;;;6.40;1.40;;;;;;;13.13;98.77;101139.44;5063266;28;20044;-52
2021/09/28 02:49:06;;;;;;;5.65;1.30;;;;;;;13.09;98.23;101148.47;5061869;28;20040;-53
2021/09/28 02:51:33;;;;;;;4.90;1.50;;;;;;;13.10;99.32;101148.41;5059940;28;20041;-52
2021/09/28 02:53:59;;;;;;;4.30;1.05;;;;;;;13.14;98.15;101141.16;5062404;28;20040;-52
2021/09/28 02:56:26;;;;;;;4.35;1.65;;;;;;;13.15;98.51;101149.13;5060275;28;20044;-52
2021/09/28 02:58:52;;;;;;;9.25;1.70;;;;;;;13.10;98.52;101139.56;5060144;28;20052;-53
2021/09/28 03:01:19;;;;;;;4.50;1.20;;;;;;;13.10;98.16;101148.41;5062660;28;20049;-54
2021/09/28 03:03:46;;;;;;;6.50;1.40;;;;;;;13.08;98.47;101141.44;5056418;28;20139;-53
2021/09/28 03:06:12;;;;;;;5.93;1.35;;;;;;;13.09;97.34;101137.84;5057694;28;20051;-53
2021/09/28 03:08:39;;;;;;;5.65;1.33;;;;;;;13.05;97.63;101147.78;5060890;28;20350;-52
2021/09/28 03:11:10;;;;;;;4.32;1.15;;;;;;;13.05;97.38;101154.91;5049362;28;20045;-52
2021/09/28 03:13:37;;;;;;;3.72;1.25;;;;;;;13.02;97.57;101149.72;5059750;28;20398;-52
2021/09/28 03:16:03;;;;;;;5.00;1.45;;;;;;;12.98;97.03;101152.50;5062499;28;20659;-52
2021/09/28 03:18:30;;;;;;;2.78;1.10;;;;;;;12.93;97.44;101149.16;5062761;28;20047;-53
2021/09/28 03:20:56;;;;;;;5.43;1.30;;;;;;;12.94;97.86;101150.91;5056473;28;20044;-52
2021/09/28 03:23:23;;;;;;;5.93;1.30;;;;;;;12.93;98.22;101154.50;5053062;28;20392;-51
2021/09/28 03:25:51;;;;;;;5.15;1.17;;;;;;;12.91;98.31;101156.34;5063142;28;20433;-52
2021/09/28 03:28:18;;;;;;;4.95;1.48;;;;;;;12.90;99.09;101157.31;5057695;28;20409;-53
2021/09/28 03:30:44;;;;;;;5.45;1.50;;;;;;;12.82;98.71;101162.09;5062538;28;20071;-53
2021/09/28 03:33:11;;;;;;;6.25;1.50;;;;;;;12.91;98.04;101182.94;5060507;28;20059;-52
2021/09/28 03:35:37;;;;;;;5.45;1.58;;;;;;;12.91;97.84;101174.97;5060829;28;20040;-52
2021/09/28 03:38:04;;;;;;;5.70;1.65;;;;;;;12.90;98.66;101181.22;5056802;28;20055;-52
2021/09/28 03:40:31;;;;;;;3.92;1.45;;;;;;;12.87;98.99;101180.50;5061566;28;20072;-52
2021/09/28 03:42:58;;;;;;;9.02;1.55;;;;;;;12.79;99.18;101169.31;5059218;28;20238;-53
2021/09/28 03:45:24;;;;;;;4.18;1.27;;;;;;;12.81;99.66;101168.34;5061770;28;20370;-52
2021/09/28 03:47:52;;;;;;;6.05;2.00;;;;;;;12.76;99.43;101172.97;5060828;28;20106;-53
2021/09/28 03:50:18;;;;;;;5.80;1.50;;;;;;;12.75;99.83;101179.22;5065201;28;20053;-52
2021/09/28 03:53:09;;;;;;;5.18;1.80;;;;;;;12.75;100.00;101184.53;5061862;28;20055;-52
2021/09/28 03:55:36;;;;;;;4.55;1.60;;;;;;;12.76;99.94;101186.25;5065594;28;20051;-52
2021/09/28 03:58:03;;;;;;;5.18;1.60;;;;;;;12.76;100.00;101177.44;5064787;28;20044;-53
2021/09/28 04:00:30;;;;;;;4.15;1.70;;;;;;;12.75;99.95;101181.88;5063180;28;20056;-53
2021/09/28 04:02:57;;;;;;;7.30;1.98;;;;;;;12.76;100.00;101182.75;5064775;28;20118;-53
2021/09/28 04:05:24;;;;;;;9.23;2.20;;;;;;;12.75;99.92;101186.34;5064244;28;20047;-52
2021/09/28 04:07:51;;;;;;;5.70;1.38;;;;;;;12.74;99.39;101185.50;5062509;28;20040;-52
2021/09/28 04:10:17;;;;;;;4.53;1.70;;;;;;;12.76;99.33;101186.25;5065701;28;20520;-52
2021/09/28 04:12:44;;;;;;;5.38;1.40;;;;;;;12.77;98.81;101185.34;5057583;28;20049;-52
2021/09/28 04:15:11;;;;;;;7.65;1.50;;;;;;;12.78;98.46;101191.50;5060181;28;20045;-54
2021/09/28 04:17:37;;;;;;;4.47;1.67;;;;;;;12.76;98.38;101190.72;5063023;28;20052;-52
2021/09/28 04:20:04;;;;;;;7.47;1.83;;;;;;;12.73;98.54;101197.06;5063885;28;20036;-51
2021/09/28 04:22:31;;;;;;;5.55;2.17;;;;;;;12.72;99.34;101191.78;5061712;28;20044;-51
2021/09/28 04:24:57;;;;;;;6.57;2.10;;;;;;;12.73;100.00;101186.41;5058495;28;20047;-53
2021/09/28 04:27:24;;;;;;;4.07;1.65;;;;;;;12.74;100.00;101187.28;5062463;28;20071;-53
2021/09/28 04:29:50;;;;;;;5.82;2.42;;;;;;;12.70;99.79;101189.22;5062405;28;20052;-55
2021/09/28 04:32:17;;;;;;;5.65;2.10;;;;;;;12.70;99.80;101181.22;5062555;28;20512;-52
2021/09/28 04:34:43;;;;;;;8.30;2.20;;;;;;;12.69;100.00;101182.16;5064660;28;20045;-52
2021/09/28 04:37:11;;;;;;;7.47;2.03;;;;;;;12.68;100.00;101185.75;5057422;28;20520;-52
2021/09/28 04:39:38;;;;;;;6.22;2.28;;;;;;;12.67;100.00;101183.16;5059739;28;20045;-53
2021/09/28 04:42:05;;;;;;;5.95;2.20;;;;;;;12.66;99.71;101192.91;5058896;28;20546;-51
2021/09/28 04:44:55;;;;;;;8.75;2.30;;;;;;;12.65;100.00;101192.06;5064249;28;20071;-53
2021/09/28 04:47:22;;;;;;;8.27;2.58;;;;;;;12.65;100.00;101192.06;5063832;28;20044;-53
2021/09/28 04:49:48;;;;;;;7.05;2.42;;;;;;;12.60;100.00;101187.84;5064401;28;20051;-52
2021/09/28 04:52:15;;;;;;;8.40;2.55;;;;;;;12.60;100.00;101193.16;5064681;28;20625;-52
2021/09/28 04:54:41;;;;;;;8.30;2.60;;;;;;;12.62;99.98;101199.28;5057442;28;20045;-53
2021/09/28 04:57:08;;;;;;;3.70;2.00;;;;;;;12.60;100.00;101202.00;5064000;28;20044;-52
2021/09/28 04:59:35;;;;;;;6.50;2.30;;;;;;;12.61;100.00;101209.03;5060128;28;20048;-52
2021/09/28 05:02:01;;;;;;;8.93;2.58;;;;;;;12.61;100.00;101211.69;5064263;28;20449;-52
2021/09/28 05:04:28;;;;;;;5.97;2.72;;;;;;;12.57;100.00;101211.91;5054353;28;20051;-54
2021/09/28 05:06:55;;;;;;;7.85;2.60;;;;;;;12.56;100.00;101216.38;5063206;28;20036;-52
2021/09/28 05:09:21;;;;;;;5.68;2.67;;;;;;;12.55;100.00;101217.28;5054940;28;20044;-53
2021/09/28 05:11:48;;;;;;;8.48;3.08;;;;;;;12.51;100.00;101214.81;5062150;28;20049;-52
2021/09/28 05:14:15;;;;;;;8.43;3.22;;;;;;;12.52;100.00;101228.03;5064116;28;20044;-52
2021/09/28 05:16:41;;;;;;;8.98;3.55;;;;;;;12.49;100.00;101216.66;5060945;28;20064;-53
2021/09/28 05:19:08;;;;;;;8.65;3.00;;;;;;;12.52;100.00;101228.03;5055826;28;20041;-53
2021/09/28 05:21:34;;;;;;;7.82;3.30;;;;;;;12.52;100.00;101225.38;5061193;28;20048;-51
2021/09/28 05:24:01;;;;;;;6.82;2.90;;;;;;;12.55;100.00;101230.56;5052262;28;20494;-53
2021/09/28 05:26:27;;;;;;;6.20;2.78;;;;;;;12.55;100.00;101227.06;5062694;28;20044;-52
2021/09/28 05:28:54;;;;;;;12.77;3.38;;;;;;;12.53;100.00;101231.56;5061898;28;20040;-52
2021/09/28 05:31:21;;;;;;;10.82;3.25;;;;;;;12.52;100.00;101232.50;5062075;28;20048;-52
2021/09/28 05:33:48;;;;;;;8.35;3.33;;;;;;;12.55;100.00;101235.03;5058945;28;20093;-53
2021/09/28 05:36:14;;;;;;;10.27;3.80;;;;;;;12.54;100.00;101227.97;5063311;28;20051;-52
2021/09/28 05:38:41;;;;;;;10.10;3.50;;;;;;;12.54;100.00;101231.50;5052975;28;20505;-52
2021/09/28 05:41:09;;;;;;;8.30;3.58;;;;;;;12.54;100.00;101231.50;5058934;28;20498;-53
2021/09/28 05:43:36;;;;;;;12.75;3.65;;;;;;;12.57;100.00;101238.50;5060054;28;20053;-54
2021/09/28 05:46:03;;;;;;;9.45;3.60;;;;;;;12.58;100.00;101242.88;5059200;28;20056;-51
2021/09/28 05:48:29;;;;;;;10.30;4.00;;;;;;;12.61;100.00;101242.72;5059727;28;20289;-53
2021/09/28 05:50:56;;;;;;;7.65;3.60;;;;;;;12.63;100.00;101247.03;5064054;28;20387;-53
2021/09/28 05:53:23;;;;;;;11.70;3.53;;;;;;;12.65;99.62;101249.66;5062094;28;20297;-54
2021/09/28 05:55:49;;;;;;;9.90;3.55;;;;;;;12.64;99.83;101243.47;5061795;28;20048;-54
2021/09/28 05:58:16;;;;;;;9.02;3.72;;;;;;;12.68;99.77;101248.66;5053400;28;20045;-53
2021/09/28 06:00:43;;;;;;;8.85;3.92;;;;;;;12.69;99.73;101256.56;5062151;28;20085;-52
2021/09/28 06:03:09;;;;;;;8.05;3.78;;;;;;;12.76;99.51;101246.53;5054711;28;20048;-53
2021/09/28 06:05:36;;;;;;;11.13;3.72;;;;;;;12.84;100.00;101255.06;5056656;28;20055;-52
2021/09/28 06:08:03;;;;;;;10.30;4.00;;;;;;;12.83;98.84;101254.19;5059973;28;20048;-51
2021/09/28 06:10:29;;;;;;;7.55;3.70;;;;;;;12.88;100.00;101256.66;5060878;28;20058;-54
2021/09/28 06:12:57;;;;;;;11.38;3.90;;;;;;;12.84;98.95;101249.72;5061832;28;20052;-52
2021/09/28 06:15:24;;;;;;;8.27;3.38;;;;;;;12.84;98.26;101255.91;5056050;28;20425;-52
2021/09/28 06:17:51;;;;;;;8.45;3.70;;;;;;;12.87;99.00;101258.44;5060734;28;20063;-53
2021/09/28 06:20:18;;;;;;;6.22;3.47;;;;;;;12.93;98.26;101262.63;5057047;28;20101;-52
2021/09/28 06:22:44;;;;;;;9.40;3.80;;;;;;;12.96;98.28;101262.50;5059684;28;20037;-52
2021/09/28 06:25:12;;;;;;;15.25;3.90;;;;;;;12.97;98.29;101251.78;5055306;28;20477;-54
2021/09/28 06:27:39;;;;;;;9.82;3.75;;;;;;;12.97;97.05;101256.25;5062499;28;20043;-54
2021/09/28 06:30:06;;;;;;;11.18;3.80;;;;;;;13.02;97.10;101261.38;5061566;28;20067;-53
2021/09/28 06:32:33;;;;;;;10.52;3.85;;;;;;;13.07;97.19;101265.53;5058469;28;20516;-53
2021/09/28 06:35:00;;;;;;;7.32;3.50;;;;;;;13.09;95.21;101260.16;5060070;28;20102;-54
2021/09/28 06:37:26;;;;;;;8.30;3.42;;;;;;;13.11;95.63;101255.66;5053685;28;20515;-53
2021/09/28 06:39:52;;;;;;;5.95;3.10;;;;;;;13.15;95.47;101254.63;5057776;28;20409;-53
2021/09/28 06:42:19;;;;;;;11.43;4.00;;;;;;;13.22;95.16;101250.78;5060230;28;20052;-53
2021/09/28 06:44:46;;;;;;;7.05;3.92;;;;;;;13.25;94.76;101256.78;5062010;28;20052;-52
2021/09/28 06:47:12;;;;;;;10.02;4.70;;;;;;;13.39;96.24;101252.66;5053306;28;20411;-52
2021/09/28 06:49:40;;;;;;;8.90;4.05;;;;;;;13.44;94.16;101255.97;5060622;28;20087;-53
2021/09/28 06:52:07;;;;;;;10.65;4.43;;;;;;;13.41;93.78;101259.63;5059567;28;20041;-54
2021/09/28 06:54:33;;;;;;;12.57;4.45;;;;;;;13.46;95.00;101262.97;5062782;28;20413;-53
2021/09/28 06:57:04;;;;;;;9.68;5.07;;;;;;;13.47;93.22;101262.03;5058703;28;20041;-52
2021/09/28 06:59:30;;;;;;;8.57;4.75;;;;;;;13.47;93.70;101267.34;5059457;28;20056;-53
2021/09/28 07:01:57;;;;;;;11.93;5.50;;;;;;;13.51;92.72;101263.63;5055864;28;20079;-53
2021/09/28 07:04:27;;;;;;;9.05;5.10;;;;;;;13.65;96.63;101263.00;5057780;28;20048;-53
2021/09/28 07:06:53;;;;;;;9.63;5.30;;;;;;;13.62;92.78;101266.66;5058451;28;20045;-52
2021/09/28 07:09:21;;;;;;;10.80;5.30;;;;;;;13.62;92.87;101263.13;5060554;28;20089;-51
2021/09/28 07:11:47;;;;;;;9.82;5.43;;;;;;;13.80;96.22;101264.09;5058235;28;20044;-53
2021/09/28 07:14:14;;;;;;;10.05;5.47;;;;;;;13.84;91.60;101265.69;5057331;28;20046;-52
2021/09/28 07:16:42;;;;;;;8.23;5.00;;;;;;;13.80;90.51;101258.75;5055150;28;20496;-53
2021/09/28 07:19:10;;;;;;;10.70;5.13;;;;;;;13.79;90.54;101262.34;5061198;28;20056;-53
2021/09/28 07:21:37;;;;;;;13.77;5.00;;;;;;;13.79;90.59;101265.88;5065325;28;20044;-53
2021/09/28 07:24:05;;;;;;;11.15;4.50;;;;;;;13.86;92.12;101247.81;5065280;28;20040;-52
2021/09/28 07:26:31;;;;;;;9.02;5.10;;;;;;;13.95;90.21;101264.22;5066878;28;20465;-51
2021/09/28 07:28:58;;;;;;;8.63;4.45;;;;;;;14.05;92.27;101270.84;5047300;28;20049;-52
2021/09/28 07:31:24;;;;;;;7.20;4.47;;;;;;;14.13;88.36;101269.63;5063760;28;20065;-53
2021/09/28 07:33:51;;;;;;;14.27;4.63;;;;;;;14.13;87.67;101264.31;5063325;28;20331;-54
2021/09/28 07:36:18;;;;;;;8.27;4.63;;;;;;;14.12;87.30;101266.09;5061113;28;20040;-53
2021/09/28 07:38:45;;;;;;;8.73;4.80;;;;;;;14.14;87.45;101269.56;5057061;28;20040;-53
2021/09/28 07:41:12;;;;;;;10.23;4.50;;;;;;;14.21;87.16;101272.78;5064223;28;20643;-55
2021/09/28 07:43:39;;;;;;;11.05;4.50;;;;;;;14.33;88.10;101273.03;5061053;28;20067;-56
2021/09/28 07:46:05;;;;;;;9.57;5.25;;;;;;;14.39;86.86;101270.09;5061196;28;20044;-53
2021/09/28 07:48:32;;;;;;;11.23;5.25;;;;;;;14.48;85.92;101275.94;5058768;28;20048;-53
2021/09/28 07:50:59;;;;;;;9.55;4.68;;;;;;;14.47;85.12;101276.88;5055464;28;20045;-52
2021/09/28 07:53:26;;;;;;;9.43;4.72;;;;;;;14.54;85.87;101273.84;5061877;28;20041;-52
2021/09/28 07:55:54;;;;;;;8.13;4.50;;;;;;;14.67;86.11;101272.28;5063133;28;20488;-52
2021/09/28 07:58:20;;;;;;;7.80;4.53;;;;;;;14.77;84.48;101270.03;5059212;28;20045;-53
2021/09/28 08:00:47;;;;;;;9.55;4.80;;;;;;;14.87;84.66;101276.63;5063947;28;20055;-52
2021/09/28 08:03:13;;;;;;;10.73;4.50;;;;;;;14.90;83.99;101267.59;5061109;28;20494;-53
2021/09/28 08:05:40;;;;;;;13.90;4.78;;;;;;;14.92;83.24;101268.38;5054461;28;20052;-53
2021/09/28 08:08:07;;;;;;;12.07;4.50;;;;;;;14.99;82.63;101275.97;5060838;28;20059;-53
2021/09/28 08:10:33;;;;;;;8.30;3.78;;;;;;;14.91;81.72;101254.19;5064243;28;20055;-54
2021/09/28 08:13:04;;;;;;;10.98;4.80;;;;;;;15.08;82.04;101275.53;5058935;28;20048;-52
2021/09/28 08:15:34;;;;;;;7.97;4.45;;;;;;;15.17;81.76;101275.97;5063078;28;20040;-53
2021/09/28 08:18:01;;;;;;;14.02;4.55;;;;;;;15.22;81.29;101274.81;5042433;28;20074;-55
2021/09/28 08:20:31;;;;;;;11.85;4.45;;;;;;;15.26;80.66;101279.03;5059890;28;20514;-52
2021/09/28 08:22:59;;;;;;;14.60;5.13;;;;;;;15.31;80.72;101281.44;5058521;28;20044;-51
2021/09/28 08:25:35;;;;;;;14.30;5.00;;;;;;;15.36;80.73;101277.59;5053577;28;20067;-54
2021/09/28 08:30:47;;;;;;;12.50;4.72;;;;;;;15.53;79.69;101278.53;5058749;28;20060;-51
2021/09/28 08:33:13;;;;;;;13.52;5.43;;;;;;;15.67;78.92;101276.88;5055694;28;20094;-52
2021/09/28 08:35:40;;;;;;;13.38;4.43;;;;;;;15.77;78.15;101275.41;5062059;28;20052;-52
2021/09/28 08:38:07;;;;;;;8.63;4.07;;;;;;;15.93;77.57;101282.56;5061318;28;20051;-53
2021/09/28 08:40:37;;;;;;;11.77;4.43;;;;;;;16.04;76.46;101277.53;5064333;28;20052;-53
2021/09/28 08:43:03;;;;;;;13.23;4.55;;;;;;;16.08;75.55;101274.56;5059421;28;20036;-53
2021/09/28 08:45:31;;;;;;;7.97;3.20;;;;;;;16.22;76.05;101268.44;5062985;28;20060;-52
2021/09/28 08:47:57;;;;;;;6.13;3.60;;;;;;;16.56;75.92;101275.41;5059306;28;20048;-54
2021/09/28 08:50:25;;;;;;;10.75;3.88;;;;;;;16.79;73.14;101250.03;5064287;28;20048;-52
2021/09/28 08:52:52;;;;;;;8.63;4.00;;;;;;;17.09;71.41;101276.78;5056084;28;20056;-53
2021/09/28 08:55:24;;;;;;;8.95;3.83;;;;;;;17.18;71.54;101279.75;5062179;28;20345;-54
2021/09/28 08:58:10;;;;;;;7.18;3.42;;;;;;;17.24;70.94;101256.25;5063469;28;20063;-54
2021/09/28 09:00:36;;;;;;;10.27;3.78;;;;;;;17.31;69.80;101269.19;5059741;28;20051;-53
2021/09/28 09:03:04;;;;;;;6.55;3.78;;;;;;;17.33;69.54;101271.75;5056358;28;20056;-54
2021/09/28 09:05:31;;;;;;;10.55;4.95;;;;;;;17.17;70.27;101280.69;5061630;28;20052;-53
2021/09/28 09:08:10;;;;;;;9.35;4.20;;;;;;;17.07;70.63;101266.16;5055577;28;20132;-52
2021/09/28 09:10:36;;;;;;;9.45;4.15;;;;;;;17.10;71.09;101267.81;5063321;28;20041;-54
2021/09/28 09:13:05;;;;;;;9.77;3.78;;;;;;;17.25;69.90;101266.00;5056056;28;20044;-53
2021/09/28 09:15:35;;;;;;;15.70;3.97;;;;;;;17.31;68.88;101269.19;5057540;28;20048;-53
2021/09/28 09:18:06;;;;;;;14.40;4.67;;;;;;;17.40;69.32;101260.56;5058042;28;20084;-53
2021/09/28 09:20:41;;;;;;;10.13;3.88;;;;;;;17.55;69.43;101264.13;5053799;28;20044;-53
2021/09/28 09:23:13;;;;;;;9.98;3.88;;;;;;;17.45;69.05;101263.84;5061817;28;20048;-52
2021/09/28 09:25:41;;;;;;;11.40;3.58;;;;;;;17.42;69.29;101263.16;5053959;28;20067;-55
2021/09/28 09:28:31;;;;;;;11.95;4.10;;;;;;;17.46;69.00;101262.03;5057575;28;20407;-53
2021/09/28 09:31:23;;;;;;;17.20;5.30;;;;;;;17.38;69.02;101256.25;5058484;28;20047;-52
2021/09/28 09:33:54;;;;;;;8.13;3.03;;;;;;;17.40;68.77;101257.03;5055015;28;20496;-53
2021/09/28 09:37:10;;;;;;;12.32;4.07;;;;;;;17.41;68.87;101261.44;5061274;28;20048;-53
2021/09/28 09:39:47;;;;;;;8.90;3.95;;;;;;;17.16;68.79;101252.22;5062172;28;20040;-53
2021/09/28 09:42:15;;;;;;;11.18;3.92;;;;;;;17.03;69.11;101247.69;5056560;28;20037;-54
2021/09/28 09:44:46;;;;;;;13.40;4.05;;;;;;;17.00;69.66;101248.75;5064417;28;20044;-54
2021/09/28 09:47:33;;;;;;;7.60;4.00;;;;;;;16.98;69.55;101245.31;5063410;28;20054;-53
2021/09/28 09:50:14;;;;;;;9.73;3.58;;;;;;;16.98;69.84;101248.00;5056695;28;20053;-52
2021/09/28 09:52:57;;;;;;;8.52;3.35;;;;;;;17.03;70.55;101237.84;5053643;28;20041;-54
2021/09/28 09:55:27;;;;;;;9.27;3.40;;;;;;;17.00;70.19;101238.03;5053554;28;20053;-52
2021/09/28 09:57:55;;;;;;;10.50;3.08;;;;;;;17.02;70.50;101232.59;5052500;28;20051;-53
2021/09/28 10:00:22;;;;;;;7.25;2.78;;;;;;;16.99;69.96;101233.66;5059942;28;20047;-53
2021/09/28 10:02:52;;;;;;;9.45;2.88;;;;;;;16.95;69.97;101232.13;5055162;28;20499;-55
2021/09/28 10:05:18;;;;;;;12.13;3.20;;;;;;;16.93;69.20;101223.31;5059614;28;20044;-53
2021/09/28 10:07:49;;;;;;;11.10;3.40;;;;;;;16.89;69.08;101228.94;5055454;28;20041;-53
2021/09/28 10:10:18;;;;;;;10.60;3.13;;;;;;;16.97;67.76;101232.03;5061691;28;20131;-52
2021/09/28 10:12:45;;;;;;;11.32;3.45;;;;;;;16.99;66.91;101232.81;5058061;28;20056;-54
2021/09/28 10:15:16;;;;;;;9.80;2.65;;;;;;;17.01;66.45;101223.72;5050263;28;20080;-54
2021/09/28 10:17:46;;;;;;;7.75;2.88;;;;;;;17.04;67.16;101217.31;5051770;28;20448;-54
2021/09/28 10:20:21;;;;;;;8.88;3.10;;;;;;;17.12;66.74;101215.91;5049623;28;20041;-53
2021/09/28 10:22:56;;;;;;;9.35;3.25;;;;;;;17.21;66.71;101221.63;5051721;28;20044;-53
2021/09/28 10:25:23;;;;;;;11.35;3.17;;;;;;;17.21;67.28;101213.59;5059849;28;20083;-53
2021/09/28 10:27:54;;;;;;;7.25;2.22;;;;;;;17.39;68.87;101212.47;5057650;28;20044;-53
2021/09/28 10:30:37;;;;;;;8.20;3.00;;;;;;;17.59;68.14;101204.06;5055950;28;20059;-52
2021/09/28 10:33:23;;;;;;;8.05;2.45;;;;;;;17.66;66.02;101207.22;5060224;28;20040;-53
2021/09/28 10:36:16;;;;;;;5.22;1.95;;;;;;;17.79;65.61;101200.97;5058759;28;20047;-54
2021/09/28 10:38:45;;;;;;;6.75;2.00;;;;;;;17.70;63.52;101204.25;5060582;28;20136;-53
2021/09/28 10:41:43;;;;;;;10.35;2.22;;;;;;;17.61;61.21;101198.59;5058091;28;20049;-53
2021/09/28 10:44:37;;;;;;;8.68;2.03;;;;;;;17.50;63.50;101199.25;5061150;28;20394;-52
2021/09/28 10:47:05;;;;;;;8.23;2.22;;;;;;;17.45;62.95;101196.03;5047390;28;20041;-54
2021/09/28 10:49:36;;;;;;;6.38;1.77;;;;;;;17.35;62.67;101185.03;5061438;28;20517;-55
2021/09/28 10:52:21;;;;;;;5.68;1.65;;;;;;;17.50;62.10;101192.09;5060438;28;20056;-52
2021/09/28 10:55:06;;;;;;;9.63;2.17;;;;;;;17.57;62.59;101197.06;5063188;28;20041;-52
2021/09/28 10:57:55;;;;;;;4.95;1.45;;;;;;;17.78;63.70;101193.94;5060051;28;20505;-53
2021/09/28 11:00:25;;;;;;;10.15;1.95;;;;;;;17.87;61.72;101193.31;5067700;28;20044;-53
2021/09/28 11:02:53;;;;;;;8.98;1.70;;;;;;;18.38;59.17;101193.53;5056504;28;20057;-53
2021/09/28 11:05:32;;;;;;;7.82;1.40;;;;;;;19.04;56.27;101192.63;5061936;28;20136;-53
2021/09/28 11:08:00;;;;;;;8.40;1.55;;;;;;;19.27;56.67;101189.19;5060278;28;20056;-55
2021/09/28 11:10:28;;;;;;;5.07;1.90;;;;;;;19.75;56.03;101180.44;5061307;28;20053;-54
2021/09/28 11:12:55;;;;;;;9.10;2.30;;;;;;;20.49;53.14;101174.00;5061841;28;20044;-54
2021/09/28 11:15:27;;;;;;;9.50;2.13;;;;;;;21.18;52.01;101175.78;5062856;28;20036;-54
2021/09/28 11:17:55;;;;;;;5.90;1.60;;;;;;;21.29;49.17;101170.41;5057832;28;20063;-53
2021/09/28 11:20:25;;;;;;;5.13;1.70;;;;;;;21.15;48.33;101167.94;5065654;28;20063;-54
2021/09/28 11:22:56;;;;;;;9.20;1.90;;;;;;;21.04;48.48;101176.00;5061690;28;20478;-52
2021/09/28 11:25:22;;;;;;;6.05;1.35;;;;;;;21.02;49.22;101165.34;5066199;28;20044;-53
2021/09/28 11:28:25;;;;;;;6.82;1.80;;;;;;;20.83;49.66;101173.13;5061046;28;20045;-52
2021/09/28 11:30:57;;;;;;;10.98;4.07;;;;;;;20.49;50.40;101168.63;5035207;28;20052;-54
2021/09/28 11:33:24;;;;;;;7.38;1.60;;;;;;;20.25;50.74;101166.81;5063120;28;20070;-55